Aquinnah, Massachusetts
Current Conditions -  °F | °C
As of 11:51 AM on Friday 28 Nov 2014 (Local Time) from KMVY Reporting Station
Light Snow Light Snow  
Wind Chill: 21°   Ceiling: 4500
Heat Index: 32°   Visibility: 3mi
Dew Point: 25°   Wind: 17mph
Humidity: 75%   Direction: 340°NNW
Pressure: 30.03"   Gusts: 24mph
Location:  41.3536°N, 70.7417°W
Report Text: KMVY 281651Z 34015G21KT 3SM -SN FEW021 OVC045 00/M04 A3003 RMK AO2 SNB08 P0000
Loading
Personal Weather Stations






























Interactive Weather Map New forecast layout! Learn more

10-Day Weather Forecast

Advertisements
Track Severe Weather on mobile